createdAt,value
2019-02-06T00:03:40.300Z,102515.09
2019-02-06T00:06:08.504Z,102520.00
2019-02-06T00:08:36.716Z,102524.10
2019-02-06T00:11:04.923Z,102522.46
2019-02-06T00:13:34.839Z,102520.31
2019-02-06T00:16:03.037Z,102513.16
2019-02-06T00:18:31.255Z,102514.00
2019-02-06T00:21:20.621Z,102514.84
2019-02-06T00:23:48.473Z,102511.58
2019-02-06T00:26:18.394Z,102512.16
2019-02-06T00:28:46.581Z,102514.33
2019-02-06T00:31:14.801Z,102509.42
2019-02-06T00:33:42.995Z,102506.18
2019-02-06T00:36:11.190Z,102511.70
2019-02-06T00:38:58.758Z,102503.50
2019-02-06T00:41:26.959Z,102503.50
2019-02-06T00:43:55.154Z,102500.25
2019-02-06T00:46:23.343Z,102497.83
2019-02-06T00:48:51.551Z,102491.84
2019-02-06T00:51:19.747Z,102493.20
2019-02-06T00:53:49.667Z,102489.69
2019-02-06T00:56:17.863Z,102496.58
2019-02-06T00:58:46.068Z,102495.20
2019-02-06T01:01:33.620Z,102497.99
2019-02-06T01:04:01.830Z,102492.84
2019-02-06T01:06:30.025Z,102488.00
2019-02-06T01:08:58.237Z,102487.48
2019-02-06T01:11:26.431Z,102488.91
2019-02-06T01:13:54.637Z,102488.91
2019-02-06T01:16:22.837Z,102492.75
2019-02-06T01:18:51.117Z,102494.95
2019-02-06T01:21:19.308Z,102492.52
2019-02-06T01:23:47.513Z,102492.27
2019-02-06T01:26:15.704Z,102495.28
2019-02-06T01:28:43.908Z,102490.37
2019-02-06T01:34:01.000Z,102481.69
2019-02-06T01:36:29.190Z,102480.64
2019-02-06T01:39:37.499Z,102485.58
2019-02-06T01:42:05.695Z,102481.22
2019-02-06T01:44:53.020Z,102486.73
2019-02-06T01:47:21.213Z,102480.69
2019-02-06T01:49:49.415Z,102484.26
2019-02-06T01:52:17.612Z,102478.22
2019-02-06T01:54:45.822Z,102470.36
2019-02-06T01:57:33.378Z,102465.47
2019-02-06T02:00:01.587Z,102459.20
2019-02-06T02:05:37.962Z,102475.98
2019-02-06T02:08:06.375Z,102469.45
2019-02-06T02:10:34.579Z,102465.34
2019-02-06T02:13:02.773Z,102459.12
2019-02-06T02:15:30.977Z,102456.17
2019-02-06T02:20:46.417Z,102447.96
2019-02-06T02:23:14.605Z,102440.05
2019-02-06T02:25:42.806Z,102432.41
2019-02-06T02:28:11.004Z,102427.25
2019-02-06T02:30:58.563Z,102435.23
2019-02-06T02:33:26.786Z,102429.23
2019-02-06T02:35:54.959Z,102433.34
2019-02-06T02:38:23.153Z,102434.22
2019-02-06T02:40:53.077Z,102433.37
2019-02-06T02:46:08.518Z,102410.41
2019-02-06T02:48:36.715Z,102398.35
2019-02-06T02:51:04.919Z,102400.78
2019-02-06T02:56:23.932Z,102393.14
2019-02-06T02:58:53.652Z,102391.55
2019-02-06T03:06:36.388Z,102391.89
2019-02-06T03:09:44.703Z,102390.52
2019-02-06T03:12:12.894Z,102386.18
2019-02-06T03:14:41.103Z,102377.09
2019-02-06T03:17:09.293Z,102368.87
2019-02-06T03:19:37.494Z,102359.29
2019-02-06T03:22:05.689Z,102357.66
2019-02-06T03:24:35.618Z,102356.85
2019-02-06T03:30:31.225Z,102350.84
2019-02-06T03:32:59.432Z,102352.52
2019-02-06T03:35:27.633Z,102343.50
2019-02-06T03:37:55.824Z,102335.05
2019-02-06T03:40:24.036Z,102335.88
2019-02-06T03:42:52.230Z,102330.97
2019-02-06T03:45:20.435Z,102333.44
2019-02-06T03:47:48.629Z,102329.33
2019-02-06T03:50:37.826Z,102326.02
2019-02-06T03:53:06.018Z,102321.05
2019-02-06T03:55:34.247Z,102315.80
2019-02-06T03:58:02.444Z,102317.71
2019-02-06T04:00:30.654Z,102309.22
2019-02-06T04:02:58.851Z,102308.66
2019-02-06T04:05:27.055Z,102297.70
2019-02-06T04:08:14.612Z,102296.30
2019-02-06T04:10:42.816Z,102294.93
2019-02-06T04:13:11.009Z,102298.77
2019-02-06T04:15:39.213Z,102292.73
2019-02-06T04:18:07.413Z,102291.13
2019-02-06T04:20:35.615Z,102283.17
2019-02-06T04:23:03.872Z,102282.88
2019-02-06T04:25:33.741Z,102282.84
2019-02-06T04:28:01.938Z,102276.50
2019-02-06T04:30:30.141Z,102260.87
2019-02-06T04:32:58.331Z,102255.09
2019-02-06T04:35:26.643Z,102242.77
2019-02-06T04:37:56.464Z,102244.97
2019-02-06T04:40:26.365Z,102232.38
2019-02-06T04:42:54.573Z,102251.25
2019-02-06T04:45:22.777Z,102241.67
2019-02-06T04:47:50.959Z,102235.66
2019-02-06T04:50:19.152Z,102236.19
2019-02-06T04:53:06.716Z,102232.12
2019-02-06T04:55:34.907Z,102224.44
2019-02-06T04:58:03.121Z,102212.38
2019-02-06T05:00:31.309Z,102206.87
2019-02-06T05:03:18.882Z,102190.98
2019-02-06T05:05:47.066Z,102200.27
2019-02-06T05:08:15.276Z,102186.85
2019-02-06T05:10:43.466Z,102194.80
2019-02-06T05:13:11.681Z,102192.83
2019-02-06T05:15:39.858Z,102192.56
2019-02-06T05:18:08.066Z,102185.16
2019-02-06T05:23:50.465Z,102194.67
2019-02-06T05:26:18.630Z,102189.73
2019-02-06T05:28:46.832Z,102176.31
2019-02-06T05:31:15.102Z,102178.48
2019-02-06T05:33:43.301Z,102178.19
2019-02-06T05:36:11.497Z,102181.99
2019-02-06T05:38:59.061Z,102183.06
2019-02-06T05:44:14.546Z,102171.02
2019-02-06T05:46:42.696Z,102165.23
2019-02-06T05:49:10.917Z,102159.50
2019-02-06T05:51:39.113Z,102158.40
2019-02-06T05:54:07.335Z,102161.10
2019-02-06T05:56:37.243Z,102166.58
2019-02-06T05:59:05.451Z,102163.58
2019-02-06T06:01:33.639Z,102169.34
2019-02-06T06:04:01.908Z,102160.33
2019-02-06T06:06:30.045Z,102157.62
2019-02-06T06:08:58.285Z,102163.41
2019-02-06T06:11:26.476Z,102164.23
2019-02-06T06:13:56.402Z,102155.76
2019-02-06T06:16:24.648Z,102154.39
2019-02-06T06:18:52.856Z,102155.19
2019-02-06T06:21:21.039Z,102156.56
2019-02-06T06:23:49.249Z,102162.56
2019-02-06T06:26:17.488Z,102156.83
2019-02-06T06:28:45.640Z,102156.00
2019-02-06T06:31:15.556Z,102150.52
2019-02-06T06:33:43.761Z,102140.38
2019-02-06T06:36:11.953Z,102140.94
2019-02-06T06:38:40.151Z,102142.61
2019-02-06T06:41:08.356Z,102140.94
2019-02-06T06:43:36.550Z,102129.73
2019-02-06T06:46:23.877Z,102128.63
2019-02-06T06:48:52.064Z,102132.20
2019-02-06T06:51:20.267Z,102130.29
2019-02-06T06:53:48.455Z,102130.33
2019-02-06T06:56:16.680Z,102115.24
2019-02-06T07:01:32.112Z,102113.88
2019-02-06T07:04:00.298Z,102111.97
2019-02-06T07:06:28.505Z,102109.23
2019-02-06T07:08:56.707Z,102107.30
2019-02-06T07:13:58.290Z,102114.22
2019-02-06T07:16:38.488Z,102120.55
2019-02-06T07:19:06.704Z,102109.07
2019-02-06T07:21:34.908Z,102112.94
2019-02-06T07:24:03.187Z,102115.67
2019-02-06T07:26:31.392Z,102112.95
2019-02-06T07:29:18.937Z,102100.95
2019-02-06T07:31:47.141Z,102099.34
2019-02-06T07:34:15.345Z,102094.43
2019-02-06T07:36:43.557Z,102092.25
2019-02-06T07:39:11.750Z,102088.70
2019-02-06T07:41:39.953Z,102092.55
2019-02-06T07:44:08.150Z,102077.24
2019-02-06T07:46:36.352Z,102076.77
2019-02-06T07:49:04.542Z,102076.50
2019-02-06T07:51:32.750Z,102067.73
2019-02-06T07:54:00.956Z,102059.80
2019-02-06T07:59:02.501Z,102065.62
2019-02-06T08:01:30.712Z,102061.27
2019-02-06T08:03:58.904Z,102049.26
2019-02-06T08:06:27.110Z,102047.64
2019-02-06T08:08:55.309Z,102049.30
2019-02-06T08:11:25.253Z,102048.78
2019-02-06T08:13:53.451Z,102049.08
2019-02-06T08:16:21.654Z,102040.30
2019-02-06T08:18:49.845Z,102039.98
2019-02-06T08:21:18.067Z,102038.08
2019-02-06T08:23:46.252Z,102043.83
2019-02-06T08:26:14.459Z,102040.00
2019-02-06T08:28:42.668Z,102041.36
2019-02-06T08:31:10.859Z,102027.66
2019-02-06T08:33:39.061Z,102029.58
2019-02-06T08:36:07.254Z,102022.73
2019-02-06T08:38:55.668Z,102021.64
2019-02-06T08:41:24.726Z,102026.59
2019-02-06T08:43:52.944Z,102026.85
2019-02-06T08:49:10.868Z,102035.08
2019-02-06T08:51:38.309Z,102034.26
2019-02-06T08:54:06.511Z,102021.66
2019-02-06T08:56:34.702Z,102027.70
2019-02-06T08:59:02.911Z,102030.97
2019-02-06T09:01:31.109Z,102014.54
2019-02-06T09:04:18.747Z,102021.10
2019-02-06T09:06:46.940Z,102008.22
2019-02-06T09:09:15.157Z,102012.34
2019-02-06T09:11:43.358Z,102008.79
2019-02-06T09:14:11.568Z,102003.28
2019-02-06T09:16:59.123Z,101999.47
2019-02-06T09:19:27.323Z,102001.39
2019-02-06T09:21:55.522Z,101997.56
2019-02-06T09:24:43.096Z,101994.26
2019-02-06T09:27:11.294Z,101991.52
2019-02-06T09:29:41.210Z,101988.24
2019-02-06T09:32:09.406Z,101987.40
2019-02-06T09:34:37.647Z,101978.36
2019-02-06T09:37:05.837Z,101993.72
2019-02-06T09:39:34.065Z,101985.77
2019-02-06T09:42:02.239Z,101982.49
2019-02-06T09:45:09.245Z,101974.78
2019-02-06T09:47:37.430Z,101972.87
2019-02-06T09:50:45.749Z,101975.59
2019-02-06T09:53:13.979Z,101975.86
2019-02-06T09:55:42.191Z,101979.16
2019-02-06T10:03:23.561Z,101967.59
2019-02-06T10:05:51.741Z,101971.97
2019-02-06T10:08:19.989Z,101966.19
2019-02-06T10:11:07.541Z,101961.78
2019-02-06T10:13:35.748Z,101974.97
2019-02-06T10:16:03.943Z,101962.87
2019-02-06T10:18:32.166Z,101960.91
2019-02-06T10:21:00.383Z,101964.20
2019-02-06T10:23:28.603Z,101955.13
2019-02-06T10:25:56.813Z,101960.34
2019-02-06T10:31:13.986Z,101948.26
2019-02-06T10:33:42.170Z,101949.05
2019-02-06T10:36:10.372Z,101950.68
2019-02-06T10:38:38.564Z,101944.89
2019-02-06T10:41:06.758Z,101942.68
2019-02-06T10:43:35.888Z,101941.05
2019-02-06T10:46:04.867Z,101938.30
2019-02-06T10:48:52.432Z,101936.35
2019-02-06T10:51:22.360Z,101933.89
2019-02-06T10:54:09.667Z,101932.81
2019-02-06T10:56:57.225Z,101929.52
2019-02-06T11:02:01.283Z,101946.31
2019-02-06T11:04:29.507Z,101925.20
2019-02-06T11:06:57.699Z,101923.53
2019-02-06T11:09:25.894Z,101923.83
2019-02-06T11:11:54.092Z,101932.07
2019-02-06T11:14:24.002Z,101925.75
2019-02-06T11:16:52.222Z,101922.45
2019-02-06T11:19:20.401Z,101922.70
2019-02-06T11:21:48.607Z,101937.56
2019-02-06T11:24:16.796Z,101930.69
2019-02-06T11:26:44.991Z,101932.86
2019-02-06T11:29:13.176Z,101930.11
2019-02-06T11:31:43.116Z,101930.11
2019-02-06T11:34:11.307Z,101936.44
2019-02-06T11:36:39.498Z,101929.56
2019-02-06T11:39:57.637Z,101923.25
2019-02-06T11:42:17.719Z,101920.80
2019-02-06T11:44:45.911Z,101921.37
2019-02-06T11:47:14.120Z,101914.80
2019-02-06T11:52:31.181Z,101908.51
2019-02-06T11:54:59.367Z,101905.48
2019-02-06T12:00:48.847Z,101897.52
2019-02-06T12:03:18.423Z,101901.89
2019-02-06T12:05:46.607Z,101915.09
2019-02-06T12:08:14.807Z,101902.44
2019-02-06T12:10:42.985Z,101897.77
2019-02-06T12:13:11.194Z,101902.44
2019-02-06T12:15:39.372Z,101897.23
2019-02-06T12:18:47.673Z,101894.20
2019-02-06T12:23:44.824Z,101886.55
2019-02-06T12:26:13.005Z,101883.83
2019-02-06T12:29:21.317Z,101882.20
2019-02-06T12:31:49.504Z,101880.00
2019-02-06T12:34:17.700Z,101870.64
2019-02-06T12:36:45.886Z,101876.68
2019-02-06T12:39:14.110Z,101874.22
2019-02-06T12:41:42.295Z,101869.27
2019-02-06T12:44:10.484Z,101869.52
2019-02-06T12:46:38.671Z,101863.78
2019-02-06T12:49:06.870Z,101863.78
2019-02-06T12:51:35.079Z,101864.03
2019-02-06T12:54:03.304Z,101857.20
2019-02-06T12:56:31.475Z,101856.38
2019-02-06T12:58:59.686Z,101860.50
2019-02-06T13:04:15.119Z,101857.50
2019-02-06T13:06:43.322Z,101852.01
2019-02-06T13:09:30.904Z,101859.16
2019-02-06T13:11:59.095Z,101846.30
2019-02-06T13:14:29.018Z,101850.13
2019-02-06T13:16:57.204Z,101839.19
2019-02-06T13:19:44.772Z,101840.27
2019-02-06T13:22:12.957Z,101840.81
2019-02-06T13:24:41.153Z,101821.85
2019-02-06T13:27:09.344Z,101813.91
2019-02-06T13:29:56.931Z,101819.97
2019-02-06T13:32:25.109Z,101817.48
2019-02-06T13:34:53.300Z,101822.97
2019-02-06T13:37:21.485Z,101826.30
2019-02-06T13:39:49.684Z,101819.14
2019-02-06T13:42:17.882Z,101826.26
2019-02-06T13:44:46.105Z,101827.34
2019-02-06T13:47:14.286Z,101825.97
2019-02-06T13:49:42.485Z,101819.64
2019-02-06T13:54:57.935Z,101817.97
2019-02-06T13:57:33.582Z,101825.63
2019-02-06T13:59:56.098Z,101813.56
2019-02-06T14:02:24.280Z,101819.88
2019-02-06T14:04:52.476Z,101804.20
2019-02-06T14:07:22.376Z,101806.95
2019-02-06T14:10:30.737Z,101803.08
2019-02-06T14:19:07.466Z,101807.73
2019-02-06T14:21:35.654Z,101796.75
2019-02-06T14:24:43.981Z,101796.45
2019-02-06T14:30:44.209Z,101803.91
2019-02-06T14:37:04.635Z,101788.52
2019-02-06T14:40:12.963Z,101782.47
2019-02-06T14:43:19.937Z,101785.52
2019-02-06T14:46:26.936Z,101778.36
2019-02-06T14:49:33.916Z,101792.08
2019-02-06T14:52:42.496Z,101780.27
2019-02-06T14:58:50.948Z,101767.31
2019-02-06T15:01:57.942Z,101767.84
2019-02-06T15:05:04.955Z,101765.92
2019-02-06T15:08:13.264Z,101768.08
2019-02-06T15:23:36.585Z,101762.27
2019-02-06T15:26:35.738Z,101758.69
2019-02-06T15:29:42.738Z,101747.69
2019-02-06T15:32:50.019Z,101755.09
2019-02-06T15:35:57.874Z,101752.34
2019-02-06T15:39:05.145Z,101761.14
2019-02-06T15:42:04.478Z,101755.35
2019-02-06T15:54:19.173Z,101760.30
2019-02-06T16:00:27.525Z,101753.98
2019-02-06T16:03:36.243Z,101750.70
2019-02-06T16:12:51.021Z,101739.75
2019-02-06T16:15:57.989Z,101749.63
2019-02-06T16:19:06.366Z,101744.12
2019-02-06T16:25:27.272Z,101752.11
2019-02-06T16:28:35.572Z,101747.72
2019-02-06T16:34:56.035Z,101744.73
2019-02-06T16:38:03.030Z,101744.20
2019-02-06T16:41:10.023Z,101745.58
2019-02-06T16:44:18.422Z,101738.99
2019-02-06T16:47:19.407Z,101738.70
2019-02-06T16:50:26.405Z,101748.31
2019-02-06T16:53:33.408Z,101746.11
2019-02-06T16:56:40.396Z,101747.23
2019-02-06T16:59:48.703Z,101737.34
2019-02-06T17:06:09.968Z,101734.28
2019-02-06T17:09:16.985Z,101724.72
2019-02-06T17:12:23.988Z,101725.56
2019-02-06T17:15:32.334Z,101733.27
2019-02-06T17:21:32.286Z,101744.27
2019-02-06T17:24:39.282Z,101745.34
2019-02-06T17:27:46.271Z,101735.73
2019-02-06T17:30:54.951Z,101740.13
2019-02-06T17:34:01.938Z,101734.34
2019-02-06T17:37:08.940Z,101732.68
2019-02-06T17:40:15.931Z,101734.36
2019-02-06T17:43:22.919Z,101731.38
2019-02-06T17:46:31.236Z,101733.28
2019-02-06T17:49:38.211Z,101721.46
2019-02-06T17:52:45.206Z,101724.49
2019-02-06T17:55:32.839Z,101723.64
2019-02-06T17:58:01.021Z,101720.36
2019-02-06T18:01:09.384Z,101709.33
2019-02-06T18:06:51.189Z,101708.80
2019-02-06T18:09:19.377Z,101706.05
2019-02-06T18:14:42.106Z,101712.92
2019-02-06T18:17:10.307Z,101712.62
2019-02-06T18:19:38.495Z,101702.98
2019-02-06T18:22:46.803Z,101699.38
2019-02-06T18:28:28.592Z,101697.96
2019-02-06T18:30:56.788Z,101693.59
2019-02-06T18:34:06.829Z,101698.80
2019-02-06T18:36:35.029Z,101698.00
2019-02-06T18:41:52.285Z,101695.81
2019-02-06T18:44:20.474Z,101699.41
2019-02-06T18:47:28.799Z,101694.19
2019-02-06T18:49:56.989Z,101702.98
2019-02-06T18:53:05.324Z,101698.55
2019-02-06T18:55:35.312Z,101702.66
2019-02-06T18:58:22.878Z,101702.66
2019-02-06T19:00:51.095Z,101700.47
2019-02-06T19:03:59.525Z,101703.77
2019-02-06T19:06:27.670Z,101704.34
2019-02-06T19:08:55.878Z,101694.15
2019-02-06T19:11:24.655Z,101691.98
2019-02-06T19:14:13.107Z,101688.09
2019-02-06T19:16:41.384Z,101685.06
2019-02-06T19:19:09.591Z,101679.04
2019-02-06T19:21:37.803Z,101679.58
2019-02-06T19:24:46.148Z,101667.74
2019-02-06T19:27:14.644Z,101673.77
2019-02-06T19:29:44.305Z,101664.98
2019-02-06T19:32:12.538Z,101671.29
2019-02-06T19:34:40.713Z,101675.36
2019-02-06T19:37:08.910Z,101666.56
2019-02-06T19:39:56.485Z,101667.09
2019-02-06T19:42:24.698Z,101667.92
2019-02-06T19:44:52.889Z,101660.23
2019-02-06T19:47:40.204Z,101664.37
2019-02-06T19:50:47.208Z,101662.69
2019-02-06T19:53:15.501Z,101661.58
2019-02-06T19:55:45.316Z,101659.36
2019-02-06T19:58:13.546Z,101666.48
2019-02-06T20:00:43.487Z,101665.09
2019-02-06T20:03:11.687Z,101652.95
2019-02-06T20:05:39.878Z,101654.86
2019-02-06T20:08:08.105Z,101648.81
2019-02-06T20:13:49.824Z,101652.34
2019-02-06T20:16:18.037Z,101652.61
2019-02-06T20:18:46.263Z,101640.50
2019-02-06T20:21:14.450Z,101637.75
2019-02-06T20:23:42.651Z,101637.75
2019-02-06T20:26:10.840Z,101631.70
2019-02-06T20:28:40.768Z,101628.41
2019-02-06T20:31:08.959Z,101625.12
2019-02-06T20:33:38.884Z,101634.44
2019-02-06T20:36:07.072Z,101633.61
2019-02-06T20:38:35.271Z,101620.98
2019-02-06T20:41:03.464Z,101619.87
2019-02-06T20:43:31.668Z,101617.66
2019-02-06T20:46:01.603Z,101619.84
2019-02-06T20:48:29.798Z,101621.22
2019-02-06T20:50:57.988Z,101618.17
2019-02-06T20:53:26.193Z,101617.63
2019-02-06T20:55:54.383Z,101612.41
2019-02-06T20:58:22.589Z,101615.69
2019-02-06T21:01:09.894Z,101614.31
2019-02-06T21:03:38.091Z,101609.66
2019-02-06T21:09:19.810Z,101604.41
2019-02-06T21:11:48.011Z,101592.64
2019-02-06T21:14:16.209Z,101585.23
2019-02-06T21:17:03.840Z,101575.36
2019-02-06T21:19:33.754Z,101567.96
2019-02-06T21:22:01.948Z,101556.14
2019-02-06T21:24:30.168Z,101555.34
2019-02-06T21:26:58.356Z,101543.53
2019-02-06T21:29:26.559Z,101548.72
2019-02-06T21:38:09.622Z,101547.88
2019-02-06T21:41:17.938Z,101544.05
2019-02-06T21:43:47.847Z,101554.77
2019-02-06T21:46:16.053Z,101552.08
2019-02-06T21:48:44.248Z,101546.84
2019-02-06T21:51:12.448Z,101541.92
2019-02-06T21:53:40.638Z,101540.50
2019-02-06T21:56:08.840Z,101536.11
2019-02-06T21:58:38.756Z,101525.11
2019-02-06T22:01:06.968Z,101530.31
2019-02-06T22:03:35.155Z,101523.16
2019-02-06T22:06:43.470Z,101523.73
2019-02-06T22:09:11.681Z,101511.07
2019-02-06T22:11:39.909Z,101503.12
2019-02-06T22:14:08.104Z,101499.00
2019-02-06T22:16:36.306Z,101500.63
2019-02-06T22:19:04.500Z,101497.57
2019-02-06T22:21:34.448Z,101497.57
2019-02-06T22:24:02.639Z,101495.63
2019-02-06T22:26:30.851Z,101498.37
2019-02-06T22:28:59.043Z,101500.08
2019-02-06T22:31:27.248Z,101490.45
2019-02-06T22:34:14.821Z,101489.61
2019-02-06T22:36:43.022Z,101486.53
2019-02-06T22:39:11.358Z,101482.38
2019-02-06T22:41:41.179Z,101492.55
2019-02-06T22:44:09.367Z,101495.84
2019-02-06T22:46:37.571Z,101494.20
2019-02-06T22:49:45.869Z,101504.02
2019-02-06T22:52:14.093Z,101502.91
2019-02-06T22:54:42.287Z,101500.97
2019-02-06T22:57:12.234Z,101500.66
2019-02-06T22:59:40.420Z,101504.23
2019-02-06T23:02:08.623Z,101500.61
2019-02-06T23:04:36.810Z,101498.91
2019-02-06T23:07:07.172Z,101501.34
2019-02-06T23:09:34.919Z,101493.07
2019-02-06T23:12:03.122Z,101492.74
2019-02-06T23:14:31.333Z,101483.33
2019-02-06T23:16:59.535Z,101480.83
2019-02-06T23:19:27.726Z,101483.30
2019-02-06T23:21:55.926Z,101475.27
2019-02-06T23:24:24.114Z,101475.23
2019-02-06T23:26:52.314Z,101458.95
2019-02-06T23:29:22.223Z,101460.29
2019-02-06T23:31:50.422Z,101454.48
2019-02-06T23:34:18.611Z,101445.09
2019-02-06T23:36:46.820Z,101439.34
2019-02-06T23:39:55.111Z,101434.67
2019-02-06T23:42:23.340Z,101435.47
2019-02-06T23:44:51.527Z,101427.80
2019-02-06T23:47:19.727Z,101423.09
2019-02-06T23:49:47.940Z,101414.90
2019-02-06T23:52:17.862Z,101414.93
2019-02-06T23:54:46.072Z,101404.48
2019-02-06T23:57:14.270Z,101411.11
2019-02-06T23:59:42.458Z,101400.91
